sensor_id;sensor_type;location;lat;lon;timestamp;temperature;humidity
11772;DHT22;12556;55.748;13.194;2023-05-07T00:00:54;3.00;99.90
11772;DHT22;12556;55.748;13.194;2023-05-07T00:03:21;3.00;99.90
11772;DHT22;12556;55.748;13.194;2023-05-07T00:05:49;2.90;99.90
11772;DHT22;12556;55.748;13.194;2023-05-07T00:08:18;2.90;99.90
11772;DHT22;12556;55.748;13.194;2023-05-07T00:10:46;2.90;99.90
11772;DHT22;12556;55.748;13.194;2023-05-07T00:13:13;2.90;99.90
11772;DHT22;12556;55.748;13.194;2023-05-07T00:15:40;2.90;99.90
11772;DHT22;12556;55.748;13.194;2023-05-07T00:18:07;2.80;99.90
11772;DHT22;12556;55.748;13.194;2023-05-07T00:20:34;2.80;99.90
11772;DHT22;12556;55.748;13.194;2023-05-07T00:23:02;2.80;99.90
11772;DHT22;12556;55.748;13.194;2023-05-07T00:25:29;2.90;99.90
11772;DHT22;12556;55.748;13.194;2023-05-07T00:27:56;2.80;99.90
11772;DHT22;12556;55.748;13.194;2023-05-07T00:30:29;2.80;99.90
11772;DHT22;12556;55.748;13.194;2023-05-07T00:32:56;2.80;99.90
11772;DHT22;12556;55.748;13.194;2023-05-07T00:35:23;2.80;99.90
11772;DHT22;12556;55.748;13.194;2023-05-07T00:37:50;2.80;99.90
11772;DHT22;12556;55.748;13.194;2023-05-07T00:40:18;2.80;99.90
11772;DHT22;12556;55.748;13.194;2023-05-07T00:42:45;2.80;99.90
11772;DHT22;12556;55.748;13.194;2023-05-07T00:45:14;2.70;99.90
11772;DHT22;12556;55.748;13.194;2023-05-07T00:47:41;2.70;99.90
11772;DHT22;12556;55.748;13.194;2023-05-07T00:50:09;2.70;99.90
11772;DHT22;12556;55.748;13.194;2023-05-07T00:52:38;2.60;99.90
11772;DHT22;12556;55.748;13.194;2023-05-07T00:55:06;2.60;99.90
11772;DHT22;12556;55.748;13.194;2023-05-07T00:57:36;2.50;99.90
11772;DHT22;12556;55.748;13.194;2023-05-07T01:00:04;2.50;99.90
11772;DHT22;12556;55.748;13.194;2023-05-07T01:02:31;2.40;99.90
11772;DHT22;12556;55.748;13.194;2023-05-07T01:05:00;2.30;99.90
11772;DHT22;12556;55.748;13.194;2023-05-07T01:07:27;2.20;99.90
11772;DHT22;12556;55.748;13.194;2023-05-07T01:09:55;2.20;99.90
11772;DHT22;12556;55.748;13.194;2023-05-07T01:12:22;2.20;99.90
11772;DHT22;12556;55.748;13.194;2023-05-07T01:14:51;3.00;99.90
11772;DHT22;12556;55.748;13.194;2023-05-07T01:17:18;2.20;99.90
11772;DHT22;12556;55.748;13.194;2023-05-07T01:19:45;2.10;99.90
11772;DHT22;12556;55.748;13.194;2023-05-07T01:22:15;3.90;99.90
11772;DHT22;12556;55.748;13.194;2023-05-07T01:24:44;2.10;99.90
11772;DHT22;12556;55.748;13.194;2023-05-07T01:27:12;2.20;99.90
11772;DHT22;12556;55.748;13.194;2023-05-07T01:29:39;2.10;99.90
11772;DHT22;12556;55.748;13.194;2023-05-07T01:32:06;2.20;99.90
11772;DHT22;12556;55.748;13.194;2023-05-07T01:34:34;2.20;99.90
11772;DHT22;12556;55.748;13.194;2023-05-07T01:37:03;2.20;99.90
11772;DHT22;12556;55.748;13.194;2023-05-07T01:39:31;2.20;99.90
11772;DHT22;12556;55.748;13.194;2023-05-07T01:42:00;2.20;99.90
11772;DHT22;12556;55.748;13.194;2023-05-07T01:44:27;4.10;99.90
11772;DHT22;12556;55.748;13.194;2023-05-07T01:46:54;2.20;99.90
11772;DHT22;12556;55.748;13.194;2023-05-07T01:49:22;2.20;99.90
11772;DHT22;12556;55.748;13.194;2023-05-07T01:51:49;2.20;99.90
11772;DHT22;12556;55.748;13.194;2023-05-07T01:54:16;2.30;99.90
11772;DHT22;12556;55.748;13.194;2023-05-07T01:56:43;2.20;99.90
11772;DHT22;12556;55.748;13.194;2023-05-07T01:59:15;2.30;99.90
11772;DHT22;12556;55.748;13.194;2023-05-07T02:01:41;2.20;99.90
11772;DHT22;12556;55.748;13.194;2023-05-07T02:04:08;2.20;99.90
11772;DHT22;12556;55.748;13.194;2023-05-07T02:06:36;2.20;99.90
11772;DHT22;12556;55.748;13.194;2023-05-07T02:09:03;2.20;99.90
11772;DHT22;12556;55.748;13.194;2023-05-07T02:11:30;2.10;99.90
11772;DHT22;12556;55.748;13.194;2023-05-07T02:13:57;2.10;99.90
11772;DHT22;12556;55.748;13.194;2023-05-07T02:16:25;2.20;99.90
11772;DHT22;12556;55.748;13.194;2023-05-07T02:18:52;2.10;99.90
11772;DHT22;12556;55.748;13.194;2023-05-07T02:21:19;2.10;99.90
11772;DHT22;12556;55.748;13.194;2023-05-07T02:23:46;2.10;99.90
11772;DHT22;12556;55.748;13.194;2023-05-07T02:26:13;2.10;99.90
11772;DHT22;12556;55.748;13.194;2023-05-07T02:28:40;2.10;99.90
11772;DHT22;12556;55.748;13.194;2023-05-07T02:31:07;2.30;99.90
11772;DHT22;12556;55.748;13.194;2023-05-07T02:33:35;2.20;99.90
11772;DHT22;12556;55.748;13.194;2023-05-07T02:36:07;2.20;99.90
11772;DHT22;12556;55.748;13.194;2023-05-07T02:38:34;2.20;99.90
11772;DHT22;12556;55.748;13.194;2023-05-07T02:41:01;2.20;99.90
11772;DHT22;12556;55.748;13.194;2023-05-07T02:43:28;2.20;99.90
11772;DHT22;12556;55.748;13.194;2023-05-07T02:46:02;2.60;99.90
11772;DHT22;12556;55.748;13.194;2023-05-07T02:48:29;2.20;99.90
11772;DHT22;12556;55.748;13.194;2023-05-07T02:50:58;2.20;99.90
11772;DHT22;12556;55.748;13.194;2023-05-07T02:53:25;2.20;99.90
11772;DHT22;12556;55.748;13.194;2023-05-07T02:55:52;2.30;99.90
11772;DHT22;12556;55.748;13.194;2023-05-07T02:58:19;2.30;99.90
11772;DHT22;12556;55.748;13.194;2023-05-07T03:00:46;2.40;99.90
11772;DHT22;12556;55.748;13.194;2023-05-07T03:03:13;2.30;99.90
11772;DHT22;12556;55.748;13.194;2023-05-07T03:05:41;2.40;99.90
11772;DHT22;12556;55.748;13.194;2023-05-07T03:08:10;2.40;99.90
11772;DHT22;12556;55.748;13.194;2023-05-07T03:10:37;2.40;99.90
11772;DHT22;12556;55.748;13.194;2023-05-07T03:13:04;2.40;99.90
11772;DHT22;12556;55.748;13.194;2023-05-07T03:15:31;2.40;99.90
11772;DHT22;12556;55.748;13.194;2023-05-07T03:17:58;2.40;99.90
11772;DHT22;12556;55.748;13.194;2023-05-07T03:20:27;2.40;99.90
11772;DHT22;12556;55.748;13.194;2023-05-07T03:22:54;2.40;99.90
11772;DHT22;12556;55.748;13.194;2023-05-07T03:25:23;2.40;99.90
11772;DHT22;12556;55.748;13.194;2023-05-07T03:27:50;2.40;99.90
11772;DHT22;12556;55.748;13.194;2023-05-07T03:30:17;2.40;99.90
11772;DHT22;12556;55.748;13.194;2023-05-07T03:32:43;2.40;99.90
11772;DHT22;12556;55.748;13.194;2023-05-07T03:35:10;2.40;99.90
11772;DHT22;12556;55.748;13.194;2023-05-07T03:37:38;2.40;99.90
11772;DHT22;12556;55.748;13.194;2023-05-07T03:40:06;2.40;99.90
11772;DHT22;12556;55.748;13.194;2023-05-07T03:42:34;2.40;99.90
11772;DHT22;12556;55.748;13.194;2023-05-07T03:45:01;2.40;99.90
11772;DHT22;12556;55.748;13.194;2023-05-07T03:47:28;2.40;99.90
11772;DHT22;12556;55.748;13.194;2023-05-07T03:49:55;2.40;99.90
11772;DHT22;12556;55.748;13.194;2023-05-07T03:52:23;2.50;99.90
11772;DHT22;12556;55.748;13.194;2023-05-07T03:54:52;2.40;99.90
11772;DHT22;12556;55.748;13.194;2023-05-07T03:57:18;2.80;99.90
11772;DHT22;12556;55.748;13.194;2023-05-07T03:59:47;2.30;99.90
11772;DHT22;12556;55.748;13.194;2023-05-07T04:02:14;2.60;99.90
11772;DHT22;12556;55.748;13.194;2023-05-07T04:04:41;2.30;99.90
11772;DHT22;12556;55.748;13.194;2023-05-07T04:07:10;2.30;99.90
11772;DHT22;12556;55.748;13.194;2023-05-07T04:09:37;2.30;99.90
11772;DHT22;12556;55.748;13.194;2023-05-07T04:12:04;2.30;99.90
11772;DHT22;12556;55.748;13.194;2023-05-07T04:14:31;2.40;99.90
11772;DHT22;12556;55.748;13.194;2023-05-07T04:17:00;2.40;99.90
11772;DHT22;12556;55.748;13.194;2023-05-07T04:19:28;2.40;99.90
11772;DHT22;12556;55.748;13.194;2023-05-07T04:21:55;2.50;99.90
11772;DHT22;12556;55.748;13.194;2023-05-07T04:24:22;2.50;99.90
11772;DHT22;12556;55.748;13.194;2023-05-07T04:26:49;2.50;99.90
11772;DHT22;12556;55.748;13.194;2023-05-07T04:29:16;2.60;99.90
11772;DHT22;12556;55.748;13.194;2023-05-07T04:31:43;2.60;99.90
11772;DHT22;12556;55.748;13.194;2023-05-07T04:34:12;2.70;99.90
11772;DHT22;12556;55.748;13.194;2023-05-07T04:36:39;3.40;99.90
11772;DHT22;12556;55.748;13.194;2023-05-07T04:39:07;2.80;99.90
11772;DHT22;12556;55.748;13.194;2023-05-07T04:41:35;2.90;99.90
11772;DHT22;12556;55.748;13.194;2023-05-07T04:44:02;2.90;99.90
11772;DHT22;12556;55.748;13.194;2023-05-07T04:46:32;3.00;99.90
11772;DHT22;12556;55.748;13.194;2023-05-07T04:48:59;3.00;99.90
11772;DHT22;12556;55.748;13.194;2023-05-07T04:51:27;3.10;99.90
11772;DHT22;12556;55.748;13.194;2023-05-07T04:53:54;3.10;99.90
11772;DHT22;12556;55.748;13.194;2023-05-07T04:56:21;3.20;99.90
11772;DHT22;12556;55.748;13.194;2023-05-07T04:58:48;3.60;99.90
11772;DHT22;12556;55.748;13.194;2023-05-07T05:01:15;3.30;99.90
11772;DHT22;12556;55.748;13.194;2023-05-07T05:03:42;3.40;99.90
11772;DHT22;12556;55.748;13.194;2023-05-07T05:06:09;4.20;99.90
11772;DHT22;12556;55.748;13.194;2023-05-07T05:08:37;3.70;99.90
11772;DHT22;12556;55.748;13.194;2023-05-07T05:11:04;3.80;99.90
11772;DHT22;12556;55.748;13.194;2023-05-07T05:13:31;4.00;99.90
11772;DHT22;12556;55.748;13.194;2023-05-07T05:15:58;4.10;99.90
11772;DHT22;12556;55.748;13.194;2023-05-07T05:18:25;4.30;99.90
11772;DHT22;12556;55.748;13.194;2023-05-07T05:20:52;4.50;99.90
11772;DHT22;12556;55.748;13.194;2023-05-07T05:23:19;4.50;99.90
11772;DHT22;12556;55.748;13.194;2023-05-07T05:25:48;4.70;99.90
11772;DHT22;12556;55.748;13.194;2023-05-07T05:28:15;4.90;99.90
11772;DHT22;12556;55.748;13.194;2023-05-07T05:30:42;5.10;99.90
11772;DHT22;12556;55.748;13.194;2023-05-07T05:33:09;5.20;99.90
11772;DHT22;12556;55.748;13.194;2023-05-07T05:35:36;5.50;99.90
11772;DHT22;12556;55.748;13.194;2023-05-07T05:38:03;5.60;99.90
11772;DHT22;12556;55.748;13.194;2023-05-07T05:40:30;5.90;99.90
11772;DHT22;12556;55.748;13.194;2023-05-07T05:42:58;6.10;99.90
11772;DHT22;12556;55.748;13.194;2023-05-07T05:45:25;6.30;99.90
11772;DHT22;12556;55.748;13.194;2023-05-07T05:47:53;6.60;99.90
11772;DHT22;12556;55.748;13.194;2023-05-07T05:50:20;6.70;99.90
11772;DHT22;12556;55.748;13.194;2023-05-07T05:52:46;8.00;99.90
11772;DHT22;12556;55.748;13.194;2023-05-07T05:55:14;7.10;99.90
11772;DHT22;12556;55.748;13.194;2023-05-07T05:57:41;7.20;99.90
11772;DHT22;12556;55.748;13.194;2023-05-07T06:00:10;7.40;99.90
11772;DHT22;12556;55.748;13.194;2023-05-07T06:02:37;7.50;99.90
11772;DHT22;12556;55.748;13.194;2023-05-07T06:05:05;7.60;99.90
11772;DHT22;12556;55.748;13.194;2023-05-07T06:07:32;7.80;99.90
11772;DHT22;12556;55.748;13.194;2023-05-07T06:10:00;7.90;99.90
11772;DHT22;12556;55.748;13.194;2023-05-07T06:12:27;8.00;99.90
11772;DHT22;12556;55.748;13.194;2023-05-07T06:14:54;8.10;99.90
11772;DHT22;12556;55.748;13.194;2023-05-07T06:17:22;8.20;99.90
11772;DHT22;12556;55.748;13.194;2023-05-07T06:19:49;8.30;99.90
11772;DHT22;12556;55.748;13.194;2023-05-07T06:22:16;8.50;99.90
11772;DHT22;12556;55.748;13.194;2023-05-07T06:24:43;8.50;99.90
11772;DHT22;12556;55.748;13.194;2023-05-07T06:27:11;8.70;99.90
11772;DHT22;12556;55.748;13.194;2023-05-07T06:29:37;8.80;99.90
11772;DHT22;12556;55.748;13.194;2023-05-07T06:32:07;9.00;99.90
11772;DHT22;12556;55.748;13.194;2023-05-07T06:34:36;9.10;99.90
11772;DHT22;12556;55.748;13.194;2023-05-07T06:37:03;9.30;99.90
11772;DHT22;12556;55.748;13.194;2023-05-07T06:39:31;9.50;99.90
11772;DHT22;12556;55.748;13.194;2023-05-07T06:41:59;9.60;99.90
11772;DHT22;12556;55.748;13.194;2023-05-07T06:44:26;9.70;99.90
11772;DHT22;12556;55.748;13.194;2023-05-07T06:46:53;10.00;99.90
11772;DHT22;12556;55.748;13.194;2023-05-07T06:49:20;10.20;99.90
11772;DHT22;12556;55.748;13.194;2023-05-07T06:51:48;10.40;99.90
11772;DHT22;12556;55.748;13.194;2023-05-07T06:54:16;10.50;99.90
11772;DHT22;12556;55.748;13.194;2023-05-07T06:56:43;10.50;99.90
11772;DHT22;12556;55.748;13.194;2023-05-07T06:59:10;10.60;99.90
11772;DHT22;12556;55.748;13.194;2023-05-07T07:01:37;10.70;99.90
11772;DHT22;12556;55.748;13.194;2023-05-07T07:04:04;10.90;99.90
11772;DHT22;12556;55.748;13.194;2023-05-07T07:06:31;11.00;99.90
11772;DHT22;12556;55.748;13.194;2023-05-07T07:09:00;11.20;99.90
11772;DHT22;12556;55.748;13.194;2023-05-07T07:11:27;11.30;99.90
11772;DHT22;12556;55.748;13.194;2023-05-07T07:13:54;11.40;99.90
11772;DHT22;12556;55.748;13.194;2023-05-07T07:16:21;11.60;99.90
11772;DHT22;12556;55.748;13.194;2023-05-07T07:18:48;11.80;99.90
11772;DHT22;12556;55.748;13.194;2023-05-07T07:21:15;11.90;99.90
11772;DHT22;12556;55.748;13.194;2023-05-07T07:23:42;12.20;99.70
11772;DHT22;12556;55.748;13.194;2023-05-07T07:26:11;12.20;99.40
11772;DHT22;12556;55.748;13.194;2023-05-07T07:28:42;12.30;98.80
11772;DHT22;12556;55.748;13.194;2023-05-07T07:31:09;12.50;98.70
11772;DHT22;12556;55.748;13.194;2023-05-07T07:33:37;12.60;98.50
11772;DHT22;12556;55.748;13.194;2023-05-07T07:36:05;12.80;98.20
11772;DHT22;12556;55.748;13.194;2023-05-07T07:38:33;13.00;97.90
11772;DHT22;12556;55.748;13.194;2023-05-07T07:41:00;13.10;97.60
11772;DHT22;12556;55.748;13.194;2023-05-07T07:43:28;13.20;97.00
11772;DHT22;12556;55.748;13.194;2023-05-07T07:45:55;13.40;97.00
11772;DHT22;12556;55.748;13.194;2023-05-07T07:48:22;13.50;96.80
11772;DHT22;12556;55.748;13.194;2023-05-07T07:50:49;13.70;96.20
11772;DHT22;12556;55.748;13.194;2023-05-07T07:53:16;13.80;96.30
11772;DHT22;12556;55.748;13.194;2023-05-07T07:55:44;14.10;96.10
11772;DHT22;12556;55.748;13.194;2023-05-07T07:58:11;14.30;95.20
11772;DHT22;12556;55.748;13.194;2023-05-07T08:00:39;14.40;94.40
11772;DHT22;12556;55.748;13.194;2023-05-07T08:03:08;14.40;94.50
11772;DHT22;12556;55.748;13.194;2023-05-07T08:05:35;14.50;94.00
11772;DHT22;12556;55.748;13.194;2023-05-07T08:08:04;14.50;94.00
11772;DHT22;12556;55.748;13.194;2023-05-07T08:10:31;14.60;94.00
11772;DHT22;12556;55.748;13.194;2023-05-07T08:13:00;14.70;93.90
11772;DHT22;12556;55.748;13.194;2023-05-07T08:15:27;14.90;94.10
11772;DHT22;12556;55.748;13.194;2023-05-07T08:17:56;14.90;93.80
11772;DHT22;12556;55.748;13.194;2023-05-07T08:20:25;15.10;93.70
11772;DHT22;12556;55.748;13.194;2023-05-07T08:22:52;15.20;93.00
11772;DHT22;12556;55.748;13.194;2023-05-07T08:25:19;15.30;92.70
11772;DHT22;12556;55.748;13.194;2023-05-07T08:27:46;15.40;92.50
11772;DHT22;12556;55.748;13.194;2023-05-07T08:30:14;15.50;92.40
11772;DHT22;12556;55.748;13.194;2023-05-07T08:32:41;15.70;92.00
11772;DHT22;12556;55.748;13.194;2023-05-07T08:35:10;15.70;91.60
11772;DHT22;12556;55.748;13.194;2023-05-07T08:37:37;15.90;91.80
11772;DHT22;12556;55.748;13.194;2023-05-07T08:40:05;16.00;91.30
11772;DHT22;12556;55.748;13.194;2023-05-07T08:42:35;16.10;91.20
11772;DHT22;12556;55.748;13.194;2023-05-07T08:45:04;16.30;91.20
11772;DHT22;12556;55.748;13.194;2023-05-07T08:47:42;16.40;90.80
11772;DHT22;12556;55.748;13.194;2023-05-07T08:50:11;16.60;90.70
11772;DHT22;12556;55.748;13.194;2023-05-07T08:52:39;16.70;90.00
11772;DHT22;12556;55.748;13.194;2023-05-07T08:55:07;16.80;89.50
11772;DHT22;12556;55.748;13.194;2023-05-07T08:57:35;16.80;88.90
11772;DHT22;12556;55.748;13.194;2023-05-07T09:00:02;16.80;88.40
11772;DHT22;12556;55.748;13.194;2023-05-07T09:02:29;16.90;88.70
11772;DHT22;12556;55.748;13.194;2023-05-07T09:04:56;17.10;88.10
11772;DHT22;12556;55.748;13.194;2023-05-07T09:07:25;17.20;87.60
11772;DHT22;12556;55.748;13.194;2023-05-07T09:09:52;17.30;86.60
11772;DHT22;12556;55.748;13.194;2023-05-07T09:12:20;17.50;86.50
11772;DHT22;12556;55.748;13.194;2023-05-07T09:14:47;17.50;85.60
11772;DHT22;12556;55.748;13.194;2023-05-07T09:17:15;17.70;85.70
11772;DHT22;12556;55.748;13.194;2023-05-07T09:19:43;17.80;85.30
11772;DHT22;12556;55.748;13.194;2023-05-07T09:22:11;17.80;83.10
11772;DHT22;12556;55.748;13.194;2023-05-07T09:24:39;17.70;82.40
11772;DHT22;12556;55.748;13.194;2023-05-07T09:27:07;17.70;81.60
11772;DHT22;12556;55.748;13.194;2023-05-07T09:29:35;17.70;81.70
11772;DHT22;12556;55.748;13.194;2023-05-07T09:32:05;17.80;81.40
11772;DHT22;12556;55.748;13.194;2023-05-07T09:34:32;17.90;81.30
11772;DHT22;12556;55.748;13.194;2023-05-07T09:37:02;17.90;80.50
11772;DHT22;12556;55.748;13.194;2023-05-07T09:39:40;18.10;81.40
11772;DHT22;12556;55.748;13.194;2023-05-07T09:42:07;18.30;79.60
11772;DHT22;12556;55.748;13.194;2023-05-07T09:44:47;18.20;79.00
11772;DHT22;12556;55.748;13.194;2023-05-07T09:47:20;18.20;78.00
11772;DHT22;12556;55.748;13.194;2023-05-07T09:49:50;18.40;77.70
11772;DHT22;12556;55.748;13.194;2023-05-07T09:52:19;18.50;77.40
11772;DHT22;12556;55.748;13.194;2023-05-07T09:54:48;18.70;77.10
11772;DHT22;12556;55.748;13.194;2023-05-07T09:57:17;18.90;75.60
11772;DHT22;12556;55.748;13.194;2023-05-07T09:59:46;19.10;75.00
11772;DHT22;12556;55.748;13.194;2023-05-07T10:02:14;19.20;73.80
11772;DHT22;12556;55.748;13.194;2023-05-07T10:04:42;19.20;72.00
11772;DHT22;12556;55.748;13.194;2023-05-07T10:07:09;19.00;70.50
11772;DHT22;12556;55.748;13.194;2023-05-07T10:09:37;19.10;69.90
11772;DHT22;12556;55.748;13.194;2023-05-07T10:12:09;19.20;69.60
11772;DHT22;12556;55.748;13.194;2023-05-07T10:14:36;19.40;69.90
11772;DHT22;12556;55.748;13.194;2023-05-07T10:17:03;19.50;69.60
11772;DHT22;12556;55.748;13.194;2023-05-07T10:19:31;19.60;68.90
11772;DHT22;12556;55.748;13.194;2023-05-07T10:22:03;19.70;67.90
11772;DHT22;12556;55.748;13.194;2023-05-07T10:24:32;19.90;67.50
11772;DHT22;12556;55.748;13.194;2023-05-07T10:27:02;20.00;67.20
11772;DHT22;12556;55.748;13.194;2023-05-07T10:29:39;20.10;66.70
11772;DHT22;12556;55.748;13.194;2023-05-07T10:32:24;20.10;66.20
11772;DHT22;12556;55.748;13.194;2023-05-07T10:34:54;20.10;66.40
11772;DHT22;12556;55.748;13.194;2023-05-07T10:37:23;20.10;64.20
11772;DHT22;12556;55.748;13.194;2023-05-07T10:39:51;20.10;63.30
11772;DHT22;12556;55.748;13.194;2023-05-07T10:42:18;20.20;62.60
11772;DHT22;12556;55.748;13.194;2023-05-07T10:44:47;20.20;62.90
11772;DHT22;12556;55.748;13.194;2023-05-07T10:47:16;20.30;63.10
11772;DHT22;12556;55.748;13.194;2023-05-07T10:50:20;20.40;62.60
11772;DHT22;12556;55.748;13.194;2023-05-07T10:55:50;20.70;63.20
11772;DHT22;12556;55.748;13.194;2023-05-07T10:58:23;20.70;62.10
11772;DHT22;12556;55.748;13.194;2023-05-07T11:00:57;20.70;62.00
11772;DHT22;12556;55.748;13.194;2023-05-07T11:03:24;20.40;60.10
11772;DHT22;12556;55.748;13.194;2023-05-07T11:06:09;20.50;60.80
11772;DHT22;12556;55.748;13.194;2023-05-07T11:08:55;20.50;58.90
11772;DHT22;12556;55.748;13.194;2023-05-07T11:11:44;20.60;58.70
11772;DHT22;12556;55.748;13.194;2023-05-07T11:14:13;20.90;58.80
11772;DHT22;12556;55.748;13.194;2023-05-07T11:16:43;21.00;58.60
11772;DHT22;12556;55.748;13.194;2023-05-07T11:19:10;21.10;57.70
11772;DHT22;12556;55.748;13.194;2023-05-07T11:21:38;21.30;57.30
11772;DHT22;12556;55.748;13.194;2023-05-07T11:24:06;21.50;57.10
11772;DHT22;12556;55.748;13.194;2023-05-07T11:26:44;21.40;54.90
11772;DHT22;12556;55.748;13.194;2023-05-07T11:29:15;21.20;54.10
11772;DHT22;12556;55.748;13.194;2023-05-07T11:31:44;21.20;53.90
11772;DHT22;12556;55.748;13.194;2023-05-07T11:34:15;21.10;53.30
11772;DHT22;12556;55.748;13.194;2023-05-07T11:36:47;21.20;53.80
11772;DHT22;12556;55.748;13.194;2023-05-07T11:39:28;21.30;53.30
11772;DHT22;12556;55.748;13.194;2023-05-07T11:41:57;21.50;53.40
11772;DHT22;12556;55.748;13.194;2023-05-07T11:44:24;21.70;53.50
11772;DHT22;12556;55.748;13.194;2023-05-07T11:46:52;21.80;52.30
11772;DHT22;12556;55.748;13.194;2023-05-07T11:49:19;21.70;51.80
11772;DHT22;12556;55.748;13.194;2023-05-07T11:51:46;21.80;51.40
11772;DHT22;12556;55.748;13.194;2023-05-07T11:54:16;21.70;50.00
11772;DHT22;12556;55.748;13.194;2023-05-07T11:56:44;21.70;50.10
11772;DHT22;12556;55.748;13.194;2023-05-07T11:59:17;21.60;50.10
11772;DHT22;12556;55.748;13.194;2023-05-07T12:01:45;21.50;50.00
11772;DHT22;12556;55.748;13.194;2023-05-07T12:04:18;21.50;50.20
11772;DHT22;12556;55.748;13.194;2023-05-07T12:06:46;21.60;50.60
11772;DHT22;12556;55.748;13.194;2023-05-07T12:09:13;21.80;49.90
11772;DHT22;12556;55.748;13.194;2023-05-07T12:11:40;21.80;49.70
11772;DHT22;12556;55.748;13.194;2023-05-07T12:14:12;21.90;49.30
11772;DHT22;12556;55.748;13.194;2023-05-07T12:16:40;21.90;49.60
11772;DHT22;12556;55.748;13.194;2023-05-07T12:19:07;22.00;48.70
11772;DHT22;12556;55.748;13.194;2023-05-07T12:21:39;22.10;49.10
11772;DHT22;12556;55.748;13.194;2023-05-07T12:24:08;21.90;48.10
11772;DHT22;12556;55.748;13.194;2023-05-07T12:26:37;21.70;47.80
11772;DHT22;12556;55.748;13.194;2023-05-07T12:29:06;21.80;47.90
11772;DHT22;12556;55.748;13.194;2023-05-07T12:31:33;21.70;48.20
11772;DHT22;12556;55.748;13.194;2023-05-07T12:34:00;21.90;49.40
11772;DHT22;12556;55.748;13.194;2023-05-07T12:36:36;22.20;49.20
11772;DHT22;12556;55.748;13.194;2023-05-07T12:39:06;22.20;47.90
11772;DHT22;12556;55.748;13.194;2023-05-07T12:41:36;22.00;48.70
11772;DHT22;12556;55.748;13.194;2023-05-07T12:44:18;21.90;48.30
11772;DHT22;12556;55.748;13.194;2023-05-07T12:46:46;21.90;48.50
11772;DHT22;12556;55.748;13.194;2023-05-07T12:49:13;22.00;48.00
11772;DHT22;12556;55.748;13.194;2023-05-07T12:51:40;21.90;48.20
11772;DHT22;12556;55.748;13.194;2023-05-07T12:54:09;21.90;47.90
11772;DHT22;12556;55.748;13.194;2023-05-07T12:56:36;21.70;47.60
11772;DHT22;12556;55.748;13.194;2023-05-07T12:59:04;21.70;47.70
11772;DHT22;12556;55.748;13.194;2023-05-07T13:01:31;21.60;48.20
11772;DHT22;12556;55.748;13.194;2023-05-07T13:04:01;21.50;48.80
11772;DHT22;12556;55.748;13.194;2023-05-07T13:06:30;21.70;49.00
11772;DHT22;12556;55.748;13.194;2023-05-07T13:08:57;21.90;49.00
11772;DHT22;12556;55.748;13.194;2023-05-07T13:11:25;21.70;48.30
11772;DHT22;12556;55.748;13.194;2023-05-07T13:13:52;21.70;48.00
11772;DHT22;12556;55.748;13.194;2023-05-07T13:16:19;21.60;47.50
11772;DHT22;12556;55.748;13.194;2023-05-07T13:18:46;21.50;48.00
11772;DHT22;12556;55.748;13.194;2023-05-07T13:21:13;21.60;48.20
11772;DHT22;12556;55.748;13.194;2023-05-07T13:23:40;21.80;48.30
11772;DHT22;12556;55.748;13.194;2023-05-07T13:26:07;21.80;48.10
11772;DHT22;12556;55.748;13.194;2023-05-07T13:28:36;21.60;47.60
11772;DHT22;12556;55.748;13.194;2023-05-07T13:31:03;21.50;47.60
11772;DHT22;12556;55.748;13.194;2023-05-07T13:33:30;21.50;47.70
11772;DHT22;12556;55.748;13.194;2023-05-07T13:35:57;21.60;48.00
11772;DHT22;12556;55.748;13.194;2023-05-07T13:38:26;21.60;47.30
11772;DHT22;12556;55.748;13.194;2023-05-07T13:40:53;21.60;47.20
11772;DHT22;12556;55.748;13.194;2023-05-07T13:43:20;21.50;46.80
11772;DHT22;12556;55.748;13.194;2023-05-07T13:45:48;21.40;46.70
11772;DHT22;12556;55.748;13.194;2023-05-07T13:48:15;21.10;46.30
11772;DHT22;12556;55.748;13.194;2023-05-07T13:50:42;21.00;46.60
11772;DHT22;12556;55.748;13.194;2023-05-07T13:53:09;21.00;46.60
11772;DHT22;12556;55.748;13.194;2023-05-07T13:55:41;21.00;46.90
11772;DHT22;12556;55.748;13.194;2023-05-07T13:58:08;20.90;46.90
11772;DHT22;12556;55.748;13.194;2023-05-07T14:00:35;20.70;46.60
11772;DHT22;12556;55.748;13.194;2023-05-07T14:03:05;20.70;46.90
11772;DHT22;12556;55.748;13.194;2023-05-07T14:05:32;20.70;46.80
11772;DHT22;12556;55.748;13.194;2023-05-07T14:07:59;20.50;46.30
11772;DHT22;12556;55.748;13.194;2023-05-07T14:10:26;20.30;46.10
11772;DHT22;12556;55.748;13.194;2023-05-07T14:12:53;20.40;46.50
11772;DHT22;12556;55.748;13.194;2023-05-07T14:15:20;20.50;46.60
11772;DHT22;12556;55.748;13.194;2023-05-07T14:17:49;20.50;46.50
11772;DHT22;12556;55.748;13.194;2023-05-07T14:20:17;20.60;46.40
11772;DHT22;12556;55.748;13.194;2023-05-07T14:22:44;20.60;46.50
11772;DHT22;12556;55.748;13.194;2023-05-07T14:25:11;20.70;47.40
11772;DHT22;12556;55.748;13.194;2023-05-07T14:27:39;20.60;46.50
11772;DHT22;12556;55.748;13.194;2023-05-07T14:30:07;20.60;46.70
11772;DHT22;12556;55.748;13.194;2023-05-07T14:32:34;20.30;46.90
11772;DHT22;12556;55.748;13.194;2023-05-07T14:35:01;20.30;47.00
11772;DHT22;12556;55.748;13.194;2023-05-07T14:37:30;20.10;46.50
11772;DHT22;12556;55.748;13.194;2023-05-07T14:39:57;19.90;46.30
11772;DHT22;12556;55.748;13.194;2023-05-07T14:42:24;19.70;46.30
11772;DHT22;12556;55.748;13.194;2023-05-07T14:44:51;19.50;46.10
11772;DHT22;12556;55.748;13.194;2023-05-07T14:47:18;19.50;46.60
11772;DHT22;12556;55.748;13.194;2023-05-07T14:49:45;19.50;46.50
11772;DHT22;12556;55.748;13.194;2023-05-07T14:52:12;19.50;46.60
11772;DHT22;12556;55.748;13.194;2023-05-07T14:54:41;19.50;47.10
11772;DHT22;12556;55.748;13.194;2023-05-07T14:57:09;19.50;46.90
11772;DHT22;12556;55.748;13.194;2023-05-07T14:59:39;19.50;47.00
11772;DHT22;12556;55.748;13.194;2023-05-07T15:02:07;19.50;47.20
11772;DHT22;12556;55.748;13.194;2023-05-07T15:04:34;19.30;47.00
11772;DHT22;12556;55.748;13.194;2023-05-07T15:07:01;19.30;47.20
11772;DHT22;12556;55.748;13.194;2023-05-07T15:09:29;19.20;47.00
11772;DHT22;12556;55.748;13.194;2023-05-07T15:11:57;19.10;47.20
11772;DHT22;12556;55.748;13.194;2023-05-07T15:14:24;18.90;47.00
11772;DHT22;12556;55.748;13.194;2023-05-07T15:16:51;18.70;47.00
11772;DHT22;12556;55.748;13.194;2023-05-07T15:19:18;18.50;47.30
11772;DHT22;12556;55.748;13.194;2023-05-07T15:21:45;18.30;47.60
11772;DHT22;12556;55.748;13.194;2023-05-07T15:24:12;18.30;47.70
11772;DHT22;12556;55.748;13.194;2023-05-07T15:26:39;18.20;47.90
11772;DHT22;12556;55.748;13.194;2023-05-07T15:29:07;18.20;48.00
11772;DHT22;12556;55.748;13.194;2023-05-07T15:31:35;18.00;47.50